createdAt,value
2022-10-14T00:01:56.624Z,22.70
2022-10-14T00:16:58.127Z,22.70
2022-10-14T00:31:59.593Z,22.70
2022-10-14T00:47:01.055Z,22.70
2022-10-14T01:02:02.490Z,22.60
2022-10-14T01:17:03.950Z,22.60
2022-10-14T01:32:05.427Z,22.60
2022-10-14T01:47:06.881Z,22.60
2022-10-14T02:02:08.329Z,22.60
2022-10-14T02:17:09.770Z,22.50
2022-10-14T02:32:11.231Z,22.50
2022-10-14T02:47:12.680Z,22.50
2022-10-14T03:02:14.215Z,22.50
2022-10-14T03:17:15.713Z,22.50
2022-10-14T03:32:17.145Z,22.50
2022-10-14T03:47:18.576Z,22.40
2022-10-14T04:02:20.259Z,22.40
2022-10-14T04:17:21.951Z,22.40
2022-10-14T04:32:23.810Z,22.40
2022-10-14T04:47:25.442Z,22.40
2022-10-14T05:02:26.902Z,22.40
2022-10-14T05:17:28.338Z,22.30
2022-10-14T05:32:29.794Z,22.30
2022-10-14T05:47:31.251Z,22.30
2022-10-14T06:02:32.714Z,22.30
2022-10-14T06:17:34.178Z,22.30
2022-10-14T06:32:35.641Z,22.30
2022-10-14T06:47:37.097Z,22.20
2022-10-14T07:02:38.542Z,22.30
2022-10-14T07:17:40.003Z,22.30
2022-10-14T07:32:41.458Z,22.30
2022-10-14T07:47:42.910Z,22.30
2022-10-14T08:02:44.374Z,22.30
2022-10-14T08:17:45.831Z,22.30
2022-10-14T08:32:47.299Z,22.30
2022-10-14T08:47:48.809Z,22.30
2022-10-14T09:02:50.297Z,22.40
2022-10-14T09:17:51.846Z,22.40
2022-10-14T09:32:53.300Z,22.40
2022-10-14T09:47:54.747Z,22.50
2022-10-14T10:02:56.212Z,22.50
2022-10-14T10:17:57.662Z,22.60
2022-10-14T10:32:59.127Z,22.60
2022-10-14T10:48:00.576Z,22.70
2022-10-14T11:03:02.028Z,22.80
2022-10-14T11:18:03.495Z,22.80
2022-10-14T11:33:04.952Z,22.80
2022-10-14T11:48:06.574Z,22.80
2022-10-14T12:03:08.072Z,22.80
2022-10-14T12:18:09.557Z,22.80
2022-10-14T12:33:11.026Z,22.80
2022-10-14T12:48:12.543Z,22.90
2022-10-14T13:03:14.011Z,22.90
2022-10-14T13:18:15.503Z,22.90
2022-10-14T13:33:16.958Z,23.00
2022-10-14T13:48:18.410Z,23.00
2022-10-14T14:03:19.854Z,23.00
2022-10-14T14:18:21.319Z,22.90
2022-10-14T14:33:22.864Z,22.90
2022-10-14T14:48:24.325Z,22.90
2022-10-14T15:03:25.770Z,22.90
2022-10-14T15:18:27.227Z,22.80
2022-10-14T15:33:28.719Z,22.80
2022-10-14T15:48:30.201Z,22.80
2022-10-14T16:03:34.554Z,22.80
2022-10-14T16:18:37.403Z,22.80
2022-10-14T16:33:41.743Z,22.80
2022-10-14T16:48:46.522Z,22.80
2022-10-14T17:03:48.026Z,22.70
2022-10-14T17:33:55.941Z,22.80
2022-10-14T17:48:57.396Z,22.70
2022-10-14T18:03:58.849Z,22.70
2022-10-14T18:19:00.285Z,22.70
2022-10-14T18:34:01.739Z,22.70
2022-10-14T18:49:03.204Z,22.70
2022-10-14T19:04:04.673Z,22.70
2022-10-14T19:19:06.134Z,22.70
2022-10-14T19:34:07.589Z,22.70
2022-10-14T19:49:09.051Z,22.60
2022-10-14T20:04:11.634Z,22.60
2022-10-14T20:19:13.098Z,22.60
2022-10-14T20:34:14.557Z,22.60
2022-10-14T20:49:16.005Z,22.60
2022-10-14T21:04:17.457Z,22.60
2022-10-14T21:19:18.922Z,22.60
2022-10-14T21:34:20.366Z,22.60
2022-10-14T21:49:21.810Z,22.60
2022-10-14T22:04:23.261Z,22.60
2022-10-14T22:19:24.712Z,22.50
2022-10-14T22:34:26.172Z,22.50
2022-10-14T22:49:27.631Z,22.50
2022-10-14T23:04:29.114Z,22.50
2022-10-14T23:19:30.736Z,22.50
2022-10-14T23:34:32.204Z,22.50
2022-10-14T23:49:33.642Z,22.50
